Current | Forecast
Updated: 10:21 AM JST on December 11, 2017
Observed at Niigata Airport, Japan
Temperature 48°F
Humidity 76%
Dew Point 41°F
Wind WSW at 24 mph
Wind Gust 36 mph
Pressure 29.71 in (Steady)
Conditions Light Rain Showers
Visibility 5.0 miles
UV 1 out of 16
Clouds (FEW) : 1000 ft
Scattered Clouds (SCT) : 1500 ft
Mostly Cloudy (BKN) : 2500 ft
Yesterday's Maximum 52°F
Yesterday's Minimum 39°F approx.
Yesterday's Heating Degree Days 20 approx.
Sunrise6:49 AM JST
Sunset4:24 PM JST
Moon Rise
Moon Set12:36 PM JST
Moon PhaseMoon Phase
Last Quarter
Raw METARSPECI RJSN 110121Z 25021G31KT 8000 -SHRA FEW010 SCT015 BKN025 09/05 Q1006 RMK 1CU010 3CU015 5CU025 A2971


Monday
. High: 77° F.
Tuesday
. High: 78° F.
Wednesday
. High: 69° F.
Thursday
. High: 73° F.
Friday
. High: 77° F.
Saturday
. High: 66° F.
Sunday
. High: 71° F.
Monday
. High: 69° F.

Units: English | Metric

Find the Weather for any City, State or Zipcode, or Country:

U.S. State List | Severe Weather | Tropical Storms | Ski Conditions
United States | Canada | Central America | South America | Asia | Europe | Australia | Africa | Islands

Weather Underground

© Copyright 2017
The Weather Company, LLC